Time;durP1;ratioP1;P1;durP2;ratioP2;P2;SDS_P1;SDS_P2;PMS_P1;PMS_P2;Temp;Humidity;BMP_temperature;BMP_pressure;BME280_temperature;BME280_humidity;BME280_pressure;Samples;Min_cycle;Max_cycle;Signal;HPM_P1;HPM_P2
2022/12/10 00:01:24;;;;;;;49.05;24.38;;;-2.50;99.90;;;;;;5016665;28;20049;-61
2022/12/10 00:03:51;;;;;;;49.72;24.75;;;-2.50;99.90;;;;;;5032723;28;20045;-61
2022/12/10 00:06:20;;;;;;;46.22;23.50;;;-2.50;99.90;;;;;;5034959;28;20428;-61
2022/12/10 00:08:48;;;;;;;46.85;23.40;;;-2.50;99.90;;;;;;5015246;28;20416;-62
2022/12/10 00:11:17;;;;;;;47.45;23.15;;;-2.50;99.90;;;;;;5038108;28;20065;-61
2022/12/10 00:13:45;;;;;;;49.42;24.52;;;-2.50;99.90;;;;;;5054778;28;20464;-62
2022/12/10 00:16:13;;;;;;;42.95;22.42;;;-2.50;99.90;;;;;;5053697;28;20051;-61
2022/12/10 00:18:42;;;;;;;46.30;23.67;;;-2.50;99.90;;;;;;5054439;28;20049;-61
2022/12/10 00:21:12;;;;;;;46.90;22.98;;;-2.60;99.90;;;;;;5036519;28;20048;-61
2022/12/10 00:23:40;;;;;;;53.28;23.30;;;-2.60;99.90;;;;;;5054187;28;20467;-62
2022/12/10 00:26:09;;;;;;;50.22;23.77;;;-2.50;99.90;;;;;;5054340;28;20037;-62
2022/12/10 00:28:36;;;;;;;43.83;23.65;;;-2.60;99.90;;;;;;5034413;28;20053;-62
2022/12/10 00:31:05;;;;;;;49.60;25.67;;;-2.60;99.90;;;;;;5036328;28;20059;-62
2022/12/10 00:33:32;;;;;;;52.40;23.63;;;-2.60;99.90;;;;;;5054419;28;20053;-62
2022/12/10 00:36:04;;;;;;;49.70;24.63;;;-2.60;99.90;;;;;;5035754;28;20052;-61
2022/12/10 00:38:31;;;;;;;48.97;24.27;;;-2.70;99.90;;;;;;5036341;28;20053;-62
2022/12/10 00:40:58;;;;;;;51.15;24.67;;;-2.50;99.90;;;;;;5036254;28;20512;-62
2022/12/10 00:43:25;;;;;;;51.58;24.80;;;-2.70;99.90;;;;;;5036004;28;20045;-62
2022/12/10 00:45:52;;;;;;;52.08;25.70;;;-2.70;99.90;;;;;;5054186;28;20049;-61
2022/12/10 00:48:19;;;;;;;47.50;24.10;;;-2.70;99.90;;;;;;5036295;28;20100;-61
2022/12/10 00:50:55;;;;;;;49.80;24.40;;;-2.70;99.90;;;;;;5034985;28;20524;-62
2022/12/10 00:53:24;;;;;;;47.25;23.77;;;-2.70;99.90;;;;;;5053258;28;20053;-61
2022/12/10 00:55:51;;;;;;;50.90;23.38;;;-2.80;99.90;;;;;;5036259;28;20044;-62
2022/12/10 00:58:18;;;;;;;51.65;26.13;;;-2.80;99.90;;;;;;5053528;28;20052;-61
2022/12/10 01:00:45;;;;;;;51.28;23.95;;;-2.80;99.90;;;;;;5054014;28;20060;-62
2022/12/10 01:03:13;;;;;;;48.70;23.80;;;-2.80;99.90;;;;;;5035781;28;20053;-61
2022/12/10 01:05:40;;;;;;;47.72;23.75;;;-2.80;99.90;;;;;;5035111;28;20049;-61
2022/12/10 01:08:07;;;;;;;57.35;27.83;;;-2.80;99.90;;;;;;5053190;28;20100;-61
2022/12/10 01:10:35;;;;;;;55.00;26.50;;;-2.80;99.90;;;;;;5053725;28;20052;-62
2022/12/10 01:13:02;;;;;;;49.55;23.88;;;-2.80;99.90;;;;;;5033485;28;20068;-62
2022/12/10 01:15:29;;;;;;;52.22;25.23;;;-2.80;99.90;;;;;;5053573;28;20144;-62
2022/12/10 01:17:56;;;;;;;55.53;25.80;;;-2.90;99.90;;;;;;5053107;28;20839;-62
2022/12/10 01:20:23;;;;;;;61.55;26.50;;;-2.60;99.90;;;;;;5053351;28;20110;-62
2022/12/10 01:22:50;;;;;;;59.70;25.92;;;-2.90;99.90;;;;;;5053435;28;20549;-62
2022/12/10 01:25:17;;;;;;;58.92;25.02;;;-2.90;99.90;;;;;;5052534;28;20056;-62
2022/12/10 01:27:45;;;;;;;53.90;25.73;;;-2.90;99.90;;;;;;5035394;28;20053;-63
2022/12/10 01:30:13;;;;;;;52.75;26.08;;;-2.80;99.90;;;;;;5053059;28;20041;-62
2022/12/10 01:32:39;;;;;;;52.58;26.63;;;-2.80;99.90;;;;;;5052552;28;20099;-62
2022/12/10 01:35:07;;;;;;;60.95;27.23;;;-2.80;99.90;;;;;;5053031;28;20353;-62
2022/12/10 01:37:34;;;;;;;56.53;27.30;;;-2.70;99.90;;;;;;5053370;28;20048;-62
2022/12/10 01:40:01;;;;;;;56.92;27.25;;;-2.80;99.90;;;;;;5032352;28;20049;-62
2022/12/10 01:42:28;;;;;;;55.33;26.23;;;-2.80;99.90;;;;;;5052752;28;20060;-61
2022/12/10 01:45:08;;;;;;;54.22;26.60;;;-2.80;99.90;;;;;;5052533;28;20508;-61
2022/12/10 01:47:35;;;;;;;59.72;26.92;;;-2.80;99.90;;;;;;5051650;28;20053;-60
2022/12/10 01:50:03;;;;;;;52.72;25.95;;;-2.80;99.90;;;;;;5035255;28;20052;-61
2022/12/10 01:52:30;;;;;;;57.35;27.77;;;-2.80;99.90;;;;;;5052869;28;20053;-62
2022/12/10 01:54:57;;;;;;;58.15;28.45;;;-2.80;99.90;;;;;;5034288;28;20055;-62
2022/12/10 01:57:26;;;;;;;62.40;27.92;;;-2.80;99.90;;;;;;5052768;28;20045;-62
2022/12/10 01:59:56;;;;;;;63.10;27.23;;;-2.80;99.90;;;;;;5034163;28;20049;-62
2022/12/10 02:02:35;;;;;;;57.53;28.05;;;-2.80;99.90;;;;;;5052462;28;20403;-61
2022/12/10 02:05:22;;;;;;;60.13;27.73;;;-2.70;99.90;;;;;;5051516;28;20072;-62
2022/12/10 02:08:00;;;;;;;63.67;28.67;;;-2.70;99.90;;;;;;5050517;28;20048;-61
2022/12/10 02:10:44;;;;;;;60.50;28.90;;;-2.60;99.90;;;;;;5034447;28;20053;-61
2022/12/10 02:13:16;;;;;;;59.47;28.73;;;-2.70;99.90;;;;;;5050157;28;20057;-62
2022/12/10 02:15:47;;;;;;;64.30;27.73;;;-2.60;99.90;;;;;;5051975;28;20047;-62
2022/12/10 02:18:21;;;;;;;63.05;28.63;;;-2.60;99.90;;;;;;5052274;28;20049;-62
2022/12/10 02:20:52;;;;;;;60.53;28.23;;;-2.60;99.90;;;;;;5033531;28;20115;-62
2022/12/10 02:23:25;;;;;;;57.75;28.45;;;-2.60;99.90;;;;;;5050058;28;20393;-62
2022/12/10 02:25:58;;;;;;;55.72;28.30;;;-2.60;99.90;;;;;;5050370;28;20040;-62
2022/12/10 02:28:37;;;;;;;59.50;29.58;;;-2.60;99.90;;;;;;5034152;28;20060;-62
2022/12/10 02:31:06;;;;;;;56.10;26.80;;;-2.50;99.90;;;;;;5050689;28;20489;-62
2022/12/10 02:33:36;;;;;;;59.35;27.38;;;-2.60;99.90;;;;;;5052006;28;20413;-62
2022/12/10 02:36:04;;;;;;;65.78;31.23;;;-2.60;99.90;;;;;;5051734;28;20044;-61
2022/12/10 02:38:35;;;;;;;55.15;27.85;;;-2.60;99.90;;;;;;5049015;28;20056;-61
2022/12/10 02:41:03;;;;;;;;;;;-2.40;99.90;;;;;;5034560;28;20107;-61
2022/12/10 02:43:31;;;;;;;56.97;26.80;;;-2.70;99.90;;;;;;5033878;28;20246;-61
2022/12/10 02:45:59;;;;;;;53.38;29.00;;;-2.70;99.90;;;;;;5051938;28;20045;-62
2022/12/10 02:48:29;;;;;;;60.88;27.75;;;-2.70;99.90;;;;;;5033908;28;20767;-62
2022/12/10 02:50:56;;;;;;;63.15;29.15;;;-2.70;99.90;;;;;;5051646;28;20073;-62
2022/12/10 02:53:23;;;;;;;65.75;28.52;;;-2.80;99.90;;;;;;5049813;28;20514;-62
2022/12/10 02:56:02;;;;;;;50.30;26.88;;;-2.80;99.90;;;;;;5051879;28;20049;-62
2022/12/10 02:58:38;;;;;;;62.70;27.83;;;-2.80;99.90;;;;;;5033649;28;20057;-62
2022/12/10 03:01:13;;;;;;;57.97;28.05;;;-2.60;99.90;;;;;;5034048;28;20107;-63
2022/12/10 03:03:48;;;;;;;66.10;28.38;;;-2.80;99.90;;;;;;5033150;28;20060;-62
2022/12/10 03:06:21;;;;;;;59.25;28.58;;;-2.80;99.90;;;;;;5051582;28;20451;-62
2022/12/10 03:08:52;;;;;;;55.83;27.05;;;-2.60;99.90;;;;;;5033994;28;20056;-62
2022/12/10 03:11:22;;;;;;;62.08;28.85;;;-2.80;99.90;;;;;;5051028;28;20056;-62
2022/12/10 03:13:55;;;;;;;49.78;26.30;;;-2.90;99.90;;;;;;5051197;28;20055;-61
2022/12/10 03:16:24;;;;;;;61.10;28.20;;;-2.90;99.90;;;;;;5050150;28;20057;-62
2022/12/10 03:18:57;;;;;;;61.60;28.25;;;-2.90;99.90;;;;;;5033354;28;20055;-61
2022/12/10 03:21:25;;;;;;;54.97;28.25;;;-2.90;99.90;;;;;;5051657;28;20512;-61
2022/12/10 03:23:52;;;;;;;58.55;29.15;;;-3.00;99.90;;;;;;5051598;28;20053;-61
2022/12/10 03:26:20;;;;;;;58.35;27.98;;;-3.00;99.90;;;;;;5032785;28;20056;-61
2022/12/10 03:28:51;;;;;;;52.58;29.77;;;-3.00;99.90;;;;;;5033858;28;20056;-62
2022/12/10 03:31:20;;;;;;;57.22;26.52;;;-3.00;99.90;;;;;;5049137;28;20041;-62
2022/12/10 03:33:49;;;;;;;58.17;27.50;;;-3.10;99.90;;;;;;5051491;28;20760;-62
2022/12/10 03:36:19;;;;;;;52.17;26.13;;;-3.10;99.90;;;;;;5033552;28;20107;-62
2022/12/10 03:38:46;;;;;;;52.35;27.15;;;-2.90;99.90;;;;;;5029661;28;20060;-62
2022/12/10 03:41:13;;;;;;;58.03;28.65;;;-3.10;99.90;;;;;;5051503;28;20049;-61
2022/12/10 03:43:52;;;;;;;58.40;27.70;;;-3.20;99.90;;;;;;5033431;28;20053;-61
2022/12/10 03:46:19;;;;;;;57.80;26.33;;;-3.20;99.90;;;;;;5049380;28;20064;-61
2022/12/10 03:48:46;;;;;;;56.83;28.00;;;-3.20;99.90;;;;;;5033613;28;20107;-61
2022/12/10 03:51:13;;;;;;;57.67;28.27;;;-3.30;99.90;;;;;;5051732;28;20052;-62
2022/12/10 03:53:41;;;;;;;59.90;28.27;;;-3.30;99.90;;;;;;5050871;28;20053;-62
2022/12/10 03:56:08;;;;;;;55.42;27.10;;;-3.20;99.90;;;;;;5033400;28;20037;-62
2022/12/10 03:58:35;;;;;;;60.70;26.67;;;-3.20;99.90;;;;;;5049322;28;20447;-62
2022/12/10 04:01:02;;;;;;;57.65;28.40;;;-3.10;99.90;;;;;;5033057;28;20156;-62
2022/12/10 04:03:29;;;;;;;67.32;29.45;;;-3.10;99.90;;;;;;5051438;28;20049;-61
2022/12/10 04:06:02;;;;;;;58.72;30.27;;;-3.10;99.90;;;;;;5033093;28;20052;-61
2022/12/10 04:08:29;;;;;;;54.53;27.65;;;-3.00;99.90;;;;;;5032952;28;20618;-61
2022/12/10 04:11:03;;;;;;;55.25;27.25;;;-2.90;99.90;;;;;;5033029;28;20515;-60
2022/12/10 04:16:29;;;;;;;55.58;26.92;;;-2.80;99.90;;;;;;5051140;28;20080;-61
2022/12/10 04:18:58;;;;;;;59.55;28.88;;;-2.80;99.90;;;;;;5049109;28;20068;-61
2022/12/10 04:26:58;;;;;;;59.08;28.70;;;-2.70;99.90;;;;;;5054703;28;20056;-61
2022/12/10 04:29:26;;;;;;;59.72;29.10;;;-2.70;99.90;;;;;;5036095;28;20052;-61
2022/12/10 04:31:54;;;;;;;55.25;27.52;;;-2.70;99.90;;;;;;5054550;28;20491;-62
2022/12/10 04:34:21;;;;;;;59.30;28.00;;;-2.70;99.90;;;;;;5036044;28;20499;-62
2022/12/10 04:36:49;;;;;;;56.72;28.70;;;-2.70;99.90;;;;;;5054051;28;20045;-61
2022/12/10 04:39:16;;;;;;;57.20;28.02;;;-2.70;99.90;;;;;;5036397;28;20053;-62
2022/12/10 04:41:45;;;;;;;66.55;29.85;;;-2.60;99.90;;;;;;5053816;28;20477;-62
2022/12/10 04:44:14;;;;;;;58.15;28.33;;;-2.60;99.90;;;;;;5034179;28;20057;-62
2022/12/10 04:46:41;;;;;;;67.40;30.77;;;-2.50;99.90;;;;;;5054254;28;20049;-62
2022/12/10 04:49:08;;;;;;;67.35;30.60;;;-2.50;99.90;;;;;;5035981;28;20485;-62
2022/12/10 04:51:35;;;;;;;68.93;30.35;;;-2.40;99.90;;;;;;5054364;28;20059;-62
2022/12/10 04:54:02;;;;;;;62.88;29.75;;;-2.40;99.90;;;;;;5036509;28;20049;-61
2022/12/10 04:56:30;;;;;;;65.65;32.15;;;-2.20;99.90;;;;;;5035412;28;20044;-62
2022/12/10 04:58:57;;;;;;;62.35;29.92;;;-1.30;99.90;;;;;;5054229;28;20489;-62
2022/12/10 05:01:26;;;;;;;62.95;31.08;;;-2.20;99.90;;;;;;5034055;28;20484;-62
2022/12/10 05:03:53;;;;;;;62.67;31.52;;;-2.10;99.90;;;;;;5053528;28;20056;-61
2022/12/10 05:06:21;;;;;;;63.60;31.05;;;-2.10;99.90;;;;;;5035659;28;20229;-61
2022/12/10 05:08:48;;;;;;;63.97;29.65;;;-2.10;99.90;;;;;;5054116;28;20386;-60
2022/12/10 05:11:17;;;;;;;68.68;31.92;;;-2.10;99.90;;;;;;5035439;28;20428;-60
2022/12/10 05:13:45;;;;;;;74.18;32.17;;;-2.10;99.90;;;;;;5053774;28;20048;-61
2022/12/10 05:16:15;;;;;;;70.63;31.55;;;-2.10;99.90;;;;;;5035740;28;20045;-61
2022/12/10 05:18:43;;;;;;;71.93;32.25;;;-1.90;99.90;;;;;;5051216;28;20415;-61
2022/12/10 05:21:13;;;;;;;72.55;33.97;;;-2.00;99.90;;;;;;5035760;28;20108;-62
2022/12/10 05:23:41;;;;;;;74.65;31.85;;;-2.00;99.90;;;;;;5035701;28;20057;-62
2022/12/10 05:26:10;;;;;;;76.72;34.20;;;-1.90;99.90;;;;;;5034825;28;20532;-61
2022/12/10 05:28:39;;;;;;;68.20;32.35;;;-1.80;99.90;;;;;;5035648;28;20052;-62
2022/12/10 05:31:11;;;;;;;86.88;36.83;;;-1.90;99.90;;;;;;5053094;28;20044;-61
2022/12/10 05:33:38;;;;;;;72.80;33.35;;;-1.90;99.90;;;;;;5035955;28;20060;-61
2022/12/10 05:36:08;;;;;;;74.43;34.90;;;-1.90;99.90;;;;;;5052783;28;20040;-61
2022/12/10 05:38:35;;;;;;;79.40;32.92;;;-1.80;99.90;;;;;;5034812;28;20060;-62
2022/12/10 05:41:03;;;;;;;107.90;39.22;;;-1.80;99.90;;;;;;5033417;28;20496;-62
2022/12/10 05:43:30;;;;;;;99.00;36.25;;;-1.80;99.90;;;;;;5053367;28;20044;-61
2022/12/10 05:46:01;;;;;;;89.82;34.67;;;-1.80;99.90;;;;;;5032215;28;20055;-61
2022/12/10 05:48:28;;;;;;;83.75;34.25;;;-1.70;99.90;;;;;;5053096;28;20060;-61
2022/12/10 05:50:55;;;;;;;103.78;36.60;;;-1.80;99.90;;;;;;5053163;28;20450;-60
2022/12/10 05:53:24;;;;;;;87.57;33.80;;;-1.80;99.90;;;;;;5034790;28;20504;-62
2022/12/10 05:55:59;;;;;;;113.90;35.58;;;-1.80;99.90;;;;;;5052862;28;20052;-62
2022/12/10 05:58:28;;;;;;;115.85;38.28;;;-1.80;99.90;;;;;;5033736;28;20045;-62
2022/12/10 06:00:55;;;;;;;129.45;36.75;;;-1.80;99.90;;;;;;5034560;28;20044;-63
2022/12/10 06:03:21;;;;;;;194.00;40.10;;;-1.60;99.90;;;;;;5052827;28;20072;-62
2022/12/10 06:05:48;;;;;;;181.38;37.95;;;-1.60;99.90;;;;;;5052625;28;20049;-63
2022/12/10 06:08:15;;;;;;;208.35;40.17;;;-1.60;99.90;;;;;;5034404;28;20045;-63
2022/12/10 06:10:44;;;;;;;266.65;46.42;;;-1.80;99.90;;;;;;5049917;28;20055;-61
2022/12/10 06:13:11;;;;;;;130.32;38.42;;;-1.50;99.90;;;;;;5021583;28;20064;-61
2022/12/10 06:15:40;;;;;;;146.00;36.00;;;-1.60;99.90;;;;;;5042620;28;20054;-61
2022/12/10 06:18:07;;;;;;;277.60;51.00;;;-1.70;99.90;;;;;;5044771;28;20049;-62
2022/12/10 06:20:35;;;;;;;113.47;35.55;;;-1.70;99.90;;;;;;5047707;28;20405;-62
2022/12/10 06:23:02;;;;;;;160.55;40.97;;;-1.70;99.90;;;;;;5032876;28;20117;-62
2022/12/10 06:25:28;;;;;;;180.70;45.20;;;-1.60;99.90;;;;;;5027216;28;20057;-61
2022/12/10 06:27:57;;;;;;;96.47;31.25;;;-1.60;99.90;;;;;;5046934;28;20056;-60
2022/12/10 06:30:24;;;;;;;229.18;40.47;;;-1.50;99.90;;;;;;5048952;28;20045;-62
2022/12/10 06:32:51;;;;;;;173.13;38.45;;;-1.60;99.90;;;;;;5044129;28;20060;-62
2022/12/10 06:35:18;;;;;;;193.05;39.75;;;-1.50;99.90;;;;;;5028902;28;20056;-62
2022/12/10 06:37:45;;;;;;;169.15;37.97;;;-1.60;99.90;;;;;;5047059;28;20049;-62
2022/12/10 06:40:12;;;;;;;234.98;41.83;;;-1.60;99.90;;;;;;5031826;28;20060;-62
2022/12/10 06:42:39;;;;;;;279.20;50.22;;;-1.60;99.90;;;;;;5047493;28;20087;-62
2022/12/10 06:45:09;;;;;;;267.75;42.38;;;-1.60;99.90;;;;;;5047905;28;20049;-62
2022/12/10 06:47:35;;;;;;;232.93;42.28;;;-1.60;99.90;;;;;;5029551;28;20041;-62
2022/12/10 06:50:03;;;;;;;207.70;37.42;;;-1.70;99.90;;;;;;5044359;28;20040;-62
2022/12/10 06:52:30;;;;;;;305.77;52.10;;;-1.70;99.90;;;;;;5030696;28;20057;-62
2022/12/10 06:54:57;;;;;;;275.85;43.42;;;-1.70;99.90;;;;;;5028438;28;20481;-62
2022/12/10 06:57:24;;;;;;;257.70;40.20;;;-0.60;99.90;;;;;;5043994;28;20099;-61
2022/12/10 06:59:51;;;;;;;306.88;39.58;;;-1.70;99.90;;;;;;5029078;28;20538;-62
2022/12/10 07:02:19;;;;;;;258.42;43.10;;;-1.50;99.90;;;;;;5026168;28;20045;-62
2022/12/10 07:04:46;;;;;;;212.70;38.72;;;-1.80;99.90;;;;;;5028214;28;20468;-62
2022/12/10 07:07:13;;;;;;;217.15;37.92;;;-1.80;99.90;;;;;;5028882;28;20045;-62
2022/12/10 07:09:40;;;;;;;233.88;40.03;;;-1.80;99.90;;;;;;5049375;28;20075;-61
2022/12/10 07:12:07;;;;;;;221.05;39.10;;;-1.60;99.90;;;;;;5028171;28;20971;-61
2022/12/10 07:14:34;;;;;;;249.57;41.53;;;-1.70;99.90;;;;;;5044820;28;20057;-61
2022/12/10 07:17:02;;;;;;;173.43;36.38;;;-1.70;99.90;;;;;;5046046;28;20397;-60
2022/12/10 07:19:30;;;;;;;220.70;41.80;;;-1.70;99.90;;;;;;5047520;28;20053;-62
2022/12/10 07:21:57;;;;;;;261.45;43.50;;;-1.70;99.90;;;;;;5048369;28;20044;-62
2022/12/10 07:24:24;;;;;;;272.95;42.05;;;-1.70;99.90;;;;;;5028327;28;20045;-61
2022/12/10 07:26:52;;;;;;;335.63;45.25;;;-1.80;99.90;;;;;;5050063;28;20041;-62
2022/12/10 07:29:21;;;;;;;277.52;42.38;;;-1.80;99.90;;;;;;5030882;28;20094;-61
2022/12/10 07:31:48;;;;;;;261.92;41.60;;;-1.80;99.90;;;;;;5045188;28;20053;-62
2022/12/10 07:34:16;;;;;;;237.70;43.97;;;-1.80;99.90;;;;;;5042145;28;20099;-62
2022/12/10 07:36:45;;;;;;;293.00;41.85;;;-1.80;99.90;;;;;;5029056;28;20056;-61
2022/12/10 07:39:16;;;;;;;232.45;39.40;;;-1.80;99.90;;;;;;5045533;28;20385;-62
2022/12/10 07:41:44;;;;;;;344.50;46.95;;;-1.90;99.90;;;;;;5031699;28;20099;-61
2022/12/10 07:44:13;;;;;;;250.10;38.40;;;-1.90;99.90;;;;;;5047972;28;20111;-61
2022/12/10 07:46:40;;;;;;;233.65;38.15;;;-1.90;99.90;;;;;;5026869;28;20068;-63
2022/12/10 07:49:08;;;;;;;197.73;36.97;;;-2.00;99.90;;;;;;5026198;28;20049;-62
2022/12/10 07:51:35;;;;;;;252.02;41.75;;;-2.00;99.90;;;;;;5043907;28;20130;-61
2022/12/10 07:54:03;;;;;;;225.80;38.08;;;-2.00;99.90;;;;;;5043781;28;20049;-61
2022/12/10 07:56:30;;;;;;;149.50;35.45;;;-2.10;99.90;;;;;;5048653;28;20049;-62
2022/12/10 07:58:57;;;;;;;196.55;32.85;;;-2.00;99.90;;;;;;5049028;28;20041;-63
2022/12/10 08:01:26;;;;;;;175.45;33.30;;;-2.00;99.90;;;;;;5048854;28;20041;-62
2022/12/10 08:07:21;;;;;;;150.52;29.85;;;-2.10;99.90;;;;;;5046816;28;20057;-62
2022/12/10 08:09:49;;;;;;;140.75;29.67;;;-2.10;99.90;;;;;;5034683;28;20053;-61
2022/12/10 08:12:16;;;;;;;156.32;32.13;;;-2.10;99.90;;;;;;5051712;28;20052;-62
2022/12/10 08:14:43;;;;;;;170.20;33.17;;;-2.10;99.90;;;;;;5048131;28;20056;-62
2022/12/10 08:17:10;;;;;;;140.77;31.90;;;-2.20;99.90;;;;;;5047845;28;20120;-68
2022/12/10 08:19:37;;;;;;;192.57;34.10;;;-2.20;99.90;;;;;;5047468;28;20076;-70
2022/12/10 08:22:04;;;;;;;163.73;30.98;;;-2.10;99.90;;;;;;5049070;28;20071;-69
2022/12/10 08:24:31;;;;;;;120.55;29.80;;;-2.10;99.90;;;;;;5034834;28;21325;-70
2022/12/10 08:26:59;;;;;;;191.13;32.60;;;-2.10;99.90;;;;;;5053291;28;20045;-67
2022/12/10 08:29:26;;;;;;;128.57;28.35;;;-2.20;99.90;;;;;;5050809;28;20052;-72
2022/12/10 08:31:53;;;;;;;160.13;30.10;;;-1.80;99.90;;;;;;5028334;28;20049;-72
2022/12/10 08:34:20;;;;;;;137.23;32.75;;;-1.40;99.90;;;;;;5047726;28;20057;-72
2022/12/10 08:36:47;;;;;;;86.25;24.45;;;-1.50;99.90;;;;;;5047191;28;20091;-70
2022/12/10 08:39:15;;;;;;;164.57;31.02;;;-1.90;99.90;;;;;;5035213;28;20045;-70
2022/12/10 08:41:42;;;;;;;137.02;31.50;;;-2.00;99.90;;;;;;5046311;28;20091;-70
2022/12/10 08:44:11;;;;;;;186.68;30.70;;;-2.00;99.90;;;;;;5044617;28;20046;-70
2022/12/10 08:46:38;;;;;;;140.95;26.80;;;-2.10;99.90;;;;;;5028927;28;20057;-70
2022/12/10 08:49:06;;;;;;;100.45;25.60;;;-2.10;99.90;;;;;;5029371;28;20392;-70
2022/12/10 08:51:33;;;;;;;113.30;26.58;;;-2.10;99.90;;;;;;5047997;28;20041;-69
2022/12/10 08:54:00;;;;;;;121.78;26.20;;;-2.10;99.90;;;;;;5045039;28;20649;-70
2022/12/10 08:56:27;;;;;;;65.47;23.10;;;-1.90;99.90;;;;;;5034242;28;20048;-71
2022/12/10 08:58:54;;;;;;;111.63;25.67;;;-2.00;99.90;;;;;;5052197;28;20124;-68
2022/12/10 09:01:22;;;;;;;86.75;25.60;;;-1.90;99.90;;;;;;5043525;28;20495;-67
2022/12/10 09:03:49;;;;;;;105.10;23.65;;;-1.90;99.90;;;;;;5021260;28;20526;-62
2022/12/10 09:06:19;;;;;;;80.85;23.23;;;-2.00;99.90;;;;;;5028152;28;20068;-62
2022/12/10 09:08:46;;;;;;;122.47;26.35;;;-2.00;99.90;;;;;;5031635;28;20499;-65
2022/12/10 09:11:15;;;;;;;140.18;26.95;;;-2.00;99.90;;;;;;5028414;28;20049;-61
2022/12/10 09:13:42;;;;;;;111.95;24.92;;;-2.10;99.90;;;;;;5045539;28;20048;-61
2022/12/10 09:16:10;;;;;;;117.53;25.05;;;-1.90;99.90;;;;;;5028597;28;20050;-68
2022/12/10 09:18:38;;;;;;;163.25;26.65;;;-2.10;99.90;;;;;;5050923;28;20111;-61
2022/12/10 09:21:07;;;;;;;110.78;25.42;;;-2.10;99.90;;;;;;5033231;28;20064;-71
2022/12/10 09:23:34;;;;;;;79.70;24.17;;;-2.10;99.90;;;;;;5029069;28;20446;-61
2022/12/10 09:26:01;;;;;;;146.65;26.52;;;-2.10;99.90;;;;;;5029747;28;20292;-61
2022/12/10 09:28:28;;;;;;;94.18;23.88;;;-1.20;99.90;;;;;;5048316;28;20044;-62
2022/12/10 09:30:58;;;;;;;117.80;26.08;;;-2.00;99.90;;;;;;5050199;28;20095;-62
2022/12/10 09:33:26;;;;;;;129.27;25.33;;;-1.90;99.90;;;;;;5030456;28;20057;-62
2022/12/10 09:35:54;;;;;;;159.13;28.73;;;-1.80;99.90;;;;;;5029490;28;20049;-62
2022/12/10 09:38:21;;;;;;;200.80;33.78;;;-1.80;99.90;;;;;;5028755;28;20497;-61
2022/12/10 09:40:57;;;;;;;122.78;24.95;;;-1.80;99.90;;;;;;5048242;28;20041;-61
2022/12/10 09:43:32;;;;;;;130.50;25.45;;;-1.80;99.90;;;;;;5048040;28;20057;-61
2022/12/10 09:46:07;;;;;;;110.45;26.33;;;-1.80;99.90;;;;;;5030620;28;20053;-61
2022/12/10 09:48:47;;;;;;;160.95;28.60;;;-1.70;99.90;;;;;;5029858;28;20053;-61
2022/12/10 09:51:23;;;;;;;101.45;22.75;;;-1.80;99.90;;;;;;5045688;28;20051;-61
2022/12/10 09:53:58;;;;;;;109.45;23.88;;;-1.80;99.90;;;;;;5046158;28;20129;-62
2022/12/10 09:56:29;;;;;;;128.40;24.55;;;-1.80;99.90;;;;;;5050507;28;20044;-62
2022/12/10 09:58:56;;;;;;;92.80;23.35;;;-1.80;99.90;;;;;;5050623;28;20052;-61
2022/12/10 10:01:28;;;;;;;74.53;24.90;;;-1.80;99.90;;;;;;5046303;28;20041;-62
2022/12/10 10:03:55;;;;;;;177.27;25.77;;;-1.70;99.90;;;;;;5026058;28;20506;-62
2022/12/10 10:06:26;;;;;;;88.38;22.92;;;-1.70;99.90;;;;;;5044662;28;20076;-62
2022/12/10 10:08:55;;;;;;;95.88;23.33;;;-1.70;99.90;;;;;;5045380;28;20048;-62
2022/12/10 10:11:25;;;;;;;78.53;22.55;;;-1.70;99.90;;;;;;5032530;28;20056;-61
2022/12/10 10:13:54;;;;;;;150.05;28.42;;;-1.70;99.90;;;;;;5027045;28;20057;-62
2022/12/10 10:16:25;;;;;;;70.50;21.70;;;-1.70;99.90;;;;;;5043916;28;20053;-62
2022/12/10 10:18:57;;;;;;;62.55;20.58;;;-1.60;99.90;;;;;;5032553;28;20056;-62
2022/12/10 10:21:28;;;;;;;61.20;21.92;;;-1.60;99.90;;;;;;5031211;28;20076;-62
2022/12/10 10:23:56;;;;;;;63.55;21.80;;;-1.50;99.90;;;;;;5048059;28;20045;-61
2022/12/10 10:26:26;;;;;;;78.45;21.42;;;-1.50;99.90;;;;;;5046250;28;20057;-61
2022/12/10 10:28:58;;;;;;;53.25;21.33;;;-1.50;99.90;;;;;;5047766;28;20041;-62
2022/12/10 10:31:27;;;;;;;86.28;22.52;;;-1.50;99.90;;;;;;5030585;28;20049;-62
2022/12/10 10:33:57;;;;;;;82.60;22.25;;;-1.50;99.90;;;;;;5030083;28;20055;-63
2022/12/10 10:36:28;;;;;;;72.53;20.50;;;-2.20;99.90;;;;;;5032307;28;20412;-62
2022/12/10 10:38:55;;;;;;;59.13;20.92;;;-1.50;99.90;;;;;;5032118;28;20045;-62
2022/12/10 10:41:25;;;;;;;61.45;19.50;;;-1.40;99.90;;;;;;5047605;28;20114;-62
2022/12/10 10:44:00;;;;;;;44.47;20.75;;;-1.40;99.90;;;;;;5049129;28;20065;-61
2022/12/10 10:46:28;;;;;;;55.13;20.08;;;-1.30;99.90;;;;;;5024669;28;20045;-61
2022/12/10 10:49:14;;;;;;;47.63;19.92;;;-1.20;99.90;;;;;;5026042;28;20049;-61
2022/12/10 10:51:45;;;;;;;55.50;21.02;;;-1.10;99.90;;;;;;5042447;28;20056;-61
2022/12/10 10:54:32;;;;;;;64.78;18.40;;;-1.10;99.90;;;;;;5042570;28;20447;-61
2022/12/10 10:57:04;;;;;;;47.58;20.35;;;-1.00;99.90;;;;;;5044212;28;20041;-61
2022/12/10 10:59:34;;;;;;;52.70;19.67;;;-1.00;99.90;;;;;;5022794;28;20090;-61
2022/12/10 11:02:12;;;;;;;95.72;22.33;;;-0.90;99.90;;;;;;5024801;28;20203;-61
2022/12/10 11:04:48;;;;;;;51.28;18.38;;;-0.90;99.90;;;;;;5044902;28;20408;-61
2022/12/10 11:07:22;;;;;;;69.60;19.05;;;-0.90;99.90;;;;;;5044198;28;20117;-62
2022/12/10 11:09:50;;;;;;;59.13;20.50;;;-0.90;99.90;;;;;;5049022;28;20059;-62
2022/12/10 11:12:34;;;;;;;54.50;19.13;;;-0.90;99.90;;;;;;5048911;28;20401;-61
2022/12/10 11:15:02;;;;;;;67.32;20.83;;;-0.90;99.90;;;;;;5048590;28;20143;-61
2022/12/10 11:17:29;;;;;;;38.03;18.00;;;-1.00;99.90;;;;;;5047496;28;20056;-61
2022/12/10 11:19:59;;;;;;;53.20;19.75;;;-0.90;99.90;;;;;;5031263;28;20378;-61
2022/12/10 11:22:29;;;;;;;60.28;19.05;;;-0.90;99.90;;;;;;5045550;28;20049;-61
2022/12/10 11:24:56;;;;;;;48.20;18.48;;;-0.90;99.90;;;;;;5026712;28;20064;-61
2022/12/10 11:27:44;;;;;;;62.17;20.08;;;-0.90;99.90;;;;;;5044890;28;20045;-61
2022/12/10 11:30:19;;;;;;;66.55;22.25;;;-0.90;99.90;;;;;;5031689;28;20056;-62
2022/12/10 11:33:04;;;;;;;48.85;17.58;;;-0.90;99.90;;;;;;5044188;28;20055;-62
2022/12/10 11:35:44;;;;;;;45.58;19.38;;;-0.90;99.90;;;;;;5048419;28;20412;-80
2022/12/10 11:38:24;;;;;;;46.83;19.13;;;-0.80;99.90;;;;;;5049653;28;20488;-63
2022/12/10 11:40:54;;;;;;;50.92;19.92;;;-0.80;99.90;;;;;;5049714;28;20053;-61
2022/12/10 11:43:42;;;;;;;55.35;21.33;;;-0.80;99.90;;;;;;5034067;28;20048;-68
2022/12/10 11:46:22;;;;;;;67.90;21.10;;;-0.60;99.90;;;;;;5028712;28;20053;-62
2022/12/10 11:49:01;;;;;;;43.53;21.08;;;-0.80;99.90;;;;;;5047327;28;20417;-61
2022/12/10 11:51:37;;;;;;;48.65;20.73;;;-0.80;99.90;;;;;;5030084;28;20041;-61
2022/12/10 11:54:21;;;;;;;63.92;21.23;;;-0.80;99.90;;;;;;5031378;28;20477;-61
2022/12/10 11:56:55;;;;;;;56.65;22.25;;;-0.80;99.90;;;;;;5032804;28;20056;-61
2022/12/10 11:59:28;;;;;;;57.58;20.30;;;-0.80;99.90;;;;;;5052728;28;20079;-61
2022/12/10 12:02:23;;;;;;;64.25;20.52;;;-0.80;99.90;;;;;;5050195;28;20049;-61
2022/12/10 12:05:08;;;;;;;91.22;21.45;;;-0.70;99.90;;;;;;5049827;28;20060;-61
2022/12/10 12:07:42;;;;;;;51.20;20.00;;;-0.70;99.90;;;;;;5029060;28;20037;-62
2022/12/10 12:10:49;;;;;;;40.75;20.10;;;-0.70;99.90;;;;;;5051655;28;20045;-62
2022/12/10 12:13:20;;;;;;;52.42;21.38;;;-0.60;99.90;;;;;;5033893;28;20128;-62
2022/12/10 12:15:52;;;;;;;59.60;20.77;;;-0.60;99.90;;;;;;5034611;28;20511;-61
2022/12/10 12:18:24;;;;;;;58.80;22.05;;;-0.50;99.90;;;;;;5054092;28;20049;-61
2022/12/10 12:20:55;;;;;;;49.05;20.88;;;-0.50;99.90;;;;;;5033923;28;20052;-61
2022/12/10 12:23:26;;;;;;;60.10;21.38;;;-0.40;99.90;;;;;;5029395;28;20064;-62
2022/12/10 12:25:59;;;;;;;60.45;21.75;;;-0.40;99.90;;;;;;5047837;28;20408;-62
2022/12/10 12:28:32;;;;;;;55.13;22.60;;;-0.40;99.90;;;;;;5028907;28;20053;-62
2022/12/10 12:31:03;;;;;;;56.22;21.80;;;-0.40;99.90;;;;;;5030758;28;20059;-62
2022/12/10 12:33:39;;;;;;;56.55;20.73;;;-0.50;99.90;;;;;;5026607;28;20061;-62
2022/12/10 12:36:11;;;;;;;56.83;24.50;;;-0.50;99.90;;;;;;5028392;28;20056;-62
2022/12/10 12:38:46;;;;;;;52.38;22.67;;;-0.50;99.90;;;;;;5050829;28;20151;-61
2022/12/10 12:41:18;;;;;;;78.55;23.73;;;-0.50;99.90;;;;;;5033136;28;20053;-61
2022/12/10 12:43:52;;;;;;;71.70;21.55;;;-0.50;99.90;;;;;;5051510;28;20137;-61
2022/12/10 12:46:26;;;;;;;65.30;21.08;;;-0.50;99.90;;;;;;5047689;28;20059;-61
2022/12/10 12:48:58;;;;;;;46.47;21.40;;;-0.40;99.90;;;;;;5029509;28;20056;-61